sensor_id;sensor_type;location;lat;lon;timestamp;P1;durP1;ratioP1;P2;durP2;ratioP2
10458;SDS011;5277;48.722;8.736;2022-08-01T00:00:09;2.90;;;2.10;;
10458;SDS011;5277;48.722;8.736;2022-08-01T00:02:36;2.00;;;1.80;;
10458;SDS011;5277;48.722;8.736;2022-08-01T00:05:03;6.60;;;2.25;;
10458;SDS011;5277;48.722;8.736;2022-08-01T00:07:31;2.42;;;1.70;;
10458;SDS011;5277;48.722;8.736;2022-08-01T00:09:57;3.05;;;2.03;;
10458;SDS011;5277;48.722;8.736;2022-08-01T00:12:23;2.80;;;2.20;;
10458;SDS011;5277;48.722;8.736;2022-08-01T00:14:49;2.50;;;1.90;;
10458;SDS011;5277;48.722;8.736;2022-08-01T00:17:14;2.15;;;1.95;;
10458;SDS011;5277;48.722;8.736;2022-08-01T00:19:40;4.50;;;1.88;;
10458;SDS011;5277;48.722;8.736;2022-08-01T00:22:06;2.65;;;2.22;;
10458;SDS011;5277;48.722;8.736;2022-08-01T00:24:32;3.17;;;2.15;;
10458;SDS011;5277;48.722;8.736;2022-08-01T00:26:58;2.70;;;2.35;;
10458;SDS011;5277;48.722;8.736;2022-08-01T00:29:24;5.50;;;1.98;;
10458;SDS011;5277;48.722;8.736;2022-08-01T00:31:49;2.60;;;2.10;;
10458;SDS011;5277;48.722;8.736;2022-08-01T00:34:15;2.35;;;2.08;;
10458;SDS011;5277;48.722;8.736;2022-08-01T00:36:41;2.22;;;1.92;;
10458;SDS011;5277;48.722;8.736;2022-08-01T00:39:07;3.33;;;1.98;;
10458;SDS011;5277;48.722;8.736;2022-08-01T00:41:32;2.50;;;2.10;;
10458;SDS011;5277;48.722;8.736;2022-08-01T00:44:01;2.50;;;2.05;;
10458;SDS011;5277;48.722;8.736;2022-08-01T00:46:28;2.72;;;2.25;;
10458;SDS011;5277;48.722;8.736;2022-08-01T00:48:53;4.55;;;2.20;;
10458;SDS011;5277;48.722;8.736;2022-08-01T00:51:20;3.17;;;2.10;;
10458;SDS011;5277;48.722;8.736;2022-08-01T00:53:47;2.45;;;2.03;;
10458;SDS011;5277;48.722;8.736;2022-08-01T00:56:13;2.50;;;1.95;;
10458;SDS011;5277;48.722;8.736;2022-08-01T00:58:39;2.10;;;1.90;;
10458;SDS011;5277;48.722;8.736;2022-08-01T01:01:05;2.42;;;2.20;;
10458;SDS011;5277;48.722;8.736;2022-08-01T01:03:31;4.13;;;2.35;;
10458;SDS011;5277;48.722;8.736;2022-08-01T01:08:33;2.63;;;2.20;;
10458;SDS011;5277;48.722;8.736;2022-08-01T01:11:08;4.35;;;2.08;;
10458;SDS011;5277;48.722;8.736;2022-08-01T01:13:41;2.97;;;2.20;;
10458;SDS011;5277;48.722;8.736;2022-08-01T01:16:15;2.40;;;2.20;;
10458;SDS011;5277;48.722;8.736;2022-08-01T01:18:47;3.15;;;2.20;;
10458;SDS011;5277;48.722;8.736;2022-08-01T01:23:50;2.20;;;1.98;;
10458;SDS011;5277;48.722;8.736;2022-08-01T01:29:30;2.50;;;2.30;;
10458;SDS011;5277;48.722;8.736;2022-08-01T01:32:18;2.58;;;2.08;;
10458;SDS011;5277;48.722;8.736;2022-08-01T01:34:48;2.25;;;1.95;;
10458;SDS011;5277;48.722;8.736;2022-08-01T01:37:18;2.42;;;2.00;;
10458;SDS011;5277;48.722;8.736;2022-08-01T01:39:46;3.55;;;2.33;;
10458;SDS011;5277;48.722;8.736;2022-08-01T01:42:15;2.58;;;2.30;;
10458;SDS011;5277;48.722;8.736;2022-08-01T01:44:46;2.85;;;2.30;;
10458;SDS011;5277;48.722;8.736;2022-08-01T01:47:14;5.30;;;2.42;;
10458;SDS011;5277;48.722;8.736;2022-08-01T01:49:42;3.00;;;2.30;;
10458;SDS011;5277;48.722;8.736;2022-08-01T01:52:11;2.40;;;2.17;;
10458;SDS011;5277;48.722;8.736;2022-08-01T01:54:40;2.17;;;1.90;;
10458;SDS011;5277;48.722;8.736;2022-08-01T01:57:10;5.28;;;2.60;;
10458;SDS011;5277;48.722;8.736;2022-08-01T01:59:37;2.55;;;2.25;;
10458;SDS011;5277;48.722;8.736;2022-08-01T02:02:05;3.08;;;2.40;;
10458;SDS011;5277;48.722;8.736;2022-08-01T02:04:32;2.90;;;2.20;;
10458;SDS011;5277;48.722;8.736;2022-08-01T02:07:01;2.42;;;2.20;;
10458;SDS011;5277;48.722;8.736;2022-08-01T02:09:28;2.20;;;2.00;;
10458;SDS011;5277;48.722;8.736;2022-08-01T02:11:56;3.00;;;2.38;;
10458;SDS011;5277;48.722;8.736;2022-08-01T02:14:23;3.00;;;2.33;;
10458;SDS011;5277;48.722;8.736;2022-08-01T02:16:52;4.57;;;2.45;;
10458;SDS011;5277;48.722;8.736;2022-08-01T02:19:21;3.50;;;2.50;;
10458;SDS011;5277;48.722;8.736;2022-08-01T02:21:48;2.70;;;2.47;;
10458;SDS011;5277;48.722;8.736;2022-08-01T02:24:26;3.47;;;2.50;;
10458;SDS011;5277;48.722;8.736;2022-08-01T02:27:14;3.60;;;2.50;;
10458;SDS011;5277;48.722;8.736;2022-08-01T02:29:53;2.50;;;2.30;;
10458;SDS011;5277;48.722;8.736;2022-08-01T02:32:32;2.85;;;2.55;;
10458;SDS011;5277;48.722;8.736;2022-08-01T02:35:02;2.92;;;2.45;;
10458;SDS011;5277;48.722;8.736;2022-08-01T02:37:33;2.55;;;2.20;;
10458;SDS011;5277;48.722;8.736;2022-08-01T02:40:01;3.13;;;2.30;;
10458;SDS011;5277;48.722;8.736;2022-08-01T02:42:28;2.78;;;2.47;;
10458;SDS011;5277;48.722;8.736;2022-08-01T02:44:55;2.78;;;2.40;;
10458;SDS011;5277;48.722;8.736;2022-08-01T02:47:22;3.33;;;2.58;;
10458;SDS011;5277;48.722;8.736;2022-08-01T02:49:50;5.35;;;2.42;;
10458;SDS011;5277;48.722;8.736;2022-08-01T02:52:18;4.05;;;2.30;;
10458;SDS011;5277;48.722;8.736;2022-08-01T02:54:47;2.60;;;2.40;;
10458;SDS011;5277;48.722;8.736;2022-08-01T02:57:16;3.08;;;2.55;;
10458;SDS011;5277;48.722;8.736;2022-08-01T02:59:43;3.22;;;2.33;;
10458;SDS011;5277;48.722;8.736;2022-08-01T03:02:10;3.72;;;2.25;;
10458;SDS011;5277;48.722;8.736;2022-08-01T03:04:38;2.60;;;2.30;;
10458;SDS011;5277;48.722;8.736;2022-08-01T03:07:06;2.78;;;2.40;;
10458;SDS011;5277;48.722;8.736;2022-08-01T03:09:36;4.45;;;2.38;;
10458;SDS011;5277;48.722;8.736;2022-08-01T03:12:07;2.85;;;2.50;;
10458;SDS011;5277;48.722;8.736;2022-08-01T03:14:37;6.95;;;2.50;;
10458;SDS011;5277;48.722;8.736;2022-08-01T03:17:04;4.10;;;2.47;;
10458;SDS011;5277;48.722;8.736;2022-08-01T03:19:32;2.40;;;2.17;;
10458;SDS011;5277;48.722;8.736;2022-08-01T03:21:59;2.28;;;2.05;;
10458;SDS011;5277;48.722;8.736;2022-08-01T03:24:28;3.20;;;2.72;;
10458;SDS011;5277;48.722;8.736;2022-08-01T03:26:56;5.28;;;2.60;;
10458;SDS011;5277;48.722;8.736;2022-08-01T03:29:24;3.30;;;2.55;;
10458;SDS011;5277;48.722;8.736;2022-08-01T03:31:52;3.83;;;2.97;;
10458;SDS011;5277;48.722;8.736;2022-08-01T03:34:18;3.50;;;2.50;;
10458;SDS011;5277;48.722;8.736;2022-08-01T03:36:47;2.90;;;2.60;;
10458;SDS011;5277;48.722;8.736;2022-08-01T03:39:19;2.70;;;2.50;;
10458;SDS011;5277;48.722;8.736;2022-08-01T03:41:50;3.83;;;2.70;;
10458;SDS011;5277;48.722;8.736;2022-08-01T03:44:20;9.48;;;2.78;;
10458;SDS011;5277;48.722;8.736;2022-08-01T03:46:52;3.78;;;2.60;;
10458;SDS011;5277;48.722;8.736;2022-08-01T03:49:23;4.20;;;2.60;;
10458;SDS011;5277;48.722;8.736;2022-08-01T03:51:58;4.53;;;2.78;;
10458;SDS011;5277;48.722;8.736;2022-08-01T03:54:28;2.80;;;2.33;;
10458;SDS011;5277;48.722;8.736;2022-08-01T03:56:58;2.53;;;2.33;;
10458;SDS011;5277;48.722;8.736;2022-08-01T03:59:25;2.55;;;2.35;;
10458;SDS011;5277;48.722;8.736;2022-08-01T04:01:51;3.70;;;2.58;;
10458;SDS011;5277;48.722;8.736;2022-08-01T04:04:18;2.63;;;2.42;;
10458;SDS011;5277;48.722;8.736;2022-08-01T04:06:44;3.15;;;2.65;;
10458;SDS011;5277;48.722;8.736;2022-08-01T04:09:10;4.75;;;2.80;;
10458;SDS011;5277;48.722;8.736;2022-08-01T04:11:37;3.97;;;2.80;;
10458;SDS011;5277;48.722;8.736;2022-08-01T04:14:03;3.65;;;2.65;;
10458;SDS011;5277;48.722;8.736;2022-08-01T04:16:28;3.63;;;2.70;;
10458;SDS011;5277;48.722;8.736;2022-08-01T04:18:54;3.33;;;2.70;;
10458;SDS011;5277;48.722;8.736;2022-08-01T04:21:22;2.95;;;2.70;;
10458;SDS011;5277;48.722;8.736;2022-08-01T04:23:50;3.35;;;2.67;;
10458;SDS011;5277;48.722;8.736;2022-08-01T04:26:18;3.53;;;2.85;;
10458;SDS011;5277;48.722;8.736;2022-08-01T04:28:46;4.55;;;2.53;;
10458;SDS011;5277;48.722;8.736;2022-08-01T04:31:15;4.22;;;2.80;;
10458;SDS011;5277;48.722;8.736;2022-08-01T04:33:43;4.05;;;2.67;;
10458;SDS011;5277;48.722;8.736;2022-08-01T04:36:13;3.10;;;2.78;;
10458;SDS011;5277;48.722;8.736;2022-08-01T04:38:40;5.38;;;2.92;;
10458;SDS011;5277;48.722;8.736;2022-08-01T04:41:09;3.45;;;2.88;;
10458;SDS011;5277;48.722;8.736;2022-08-01T04:43:37;6.18;;;3.05;;
10458;SDS011;5277;48.722;8.736;2022-08-01T04:46:03;3.08;;;2.78;;
10458;SDS011;5277;48.722;8.736;2022-08-01T04:48:31;3.22;;;2.92;;
10458;SDS011;5277;48.722;8.736;2022-08-01T04:50:59;3.22;;;2.78;;
10458;SDS011;5277;48.722;8.736;2022-08-01T04:53:25;3.47;;;3.00;;
10458;SDS011;5277;48.722;8.736;2022-08-01T04:55:52;5.53;;;2.75;;
10458;SDS011;5277;48.722;8.736;2022-08-01T04:58:17;3.88;;;2.90;;
10458;SDS011;5277;48.722;8.736;2022-08-01T05:00:43;5.57;;;2.63;;
10458;SDS011;5277;48.722;8.736;2022-08-01T05:03:09;3.15;;;2.70;;
10458;SDS011;5277;48.722;8.736;2022-08-01T05:05:35;4.40;;;3.05;;
10458;SDS011;5277;48.722;8.736;2022-08-01T05:08:01;5.32;;;2.80;;
10458;SDS011;5277;48.722;8.736;2022-08-01T05:10:27;3.45;;;2.88;;
10458;SDS011;5277;48.722;8.736;2022-08-01T05:12:53;5.10;;;2.70;;
10458;SDS011;5277;48.722;8.736;2022-08-01T05:15:19;3.15;;;2.85;;
10458;SDS011;5277;48.722;8.736;2022-08-01T05:17:44;5.10;;;2.60;;
10458;SDS011;5277;48.722;8.736;2022-08-01T05:20:11;3.22;;;2.80;;
10458;SDS011;5277;48.722;8.736;2022-08-01T05:22:37;3.33;;;2.80;;
10458;SDS011;5277;48.722;8.736;2022-08-01T05:25:04;7.93;;;3.10;;
10458;SDS011;5277;48.722;8.736;2022-08-01T05:27:30;3.05;;;2.55;;
10458;SDS011;5277;48.722;8.736;2022-08-01T05:29:56;3.55;;;2.92;;
10458;SDS011;5277;48.722;8.736;2022-08-01T05:32:22;3.30;;;2.90;;
10458;SDS011;5277;48.722;8.736;2022-08-01T05:34:48;5.57;;;3.00;;
10458;SDS011;5277;48.722;8.736;2022-08-01T05:37:14;4.15;;;2.88;;
10458;SDS011;5277;48.722;8.736;2022-08-01T05:39:40;4.63;;;3.08;;
10458;SDS011;5277;48.722;8.736;2022-08-01T05:42:13;3.45;;;2.67;;
10458;SDS011;5277;48.722;8.736;2022-08-01T05:44:51;3.65;;;2.80;;
10458;SDS011;5277;48.722;8.736;2022-08-01T05:47:19;4.40;;;3.33;;
10458;SDS011;5277;48.722;8.736;2022-08-01T05:49:58;5.28;;;3.17;;
10458;SDS011;5277;48.722;8.736;2022-08-01T05:52:33;3.45;;;3.10;;
10458;SDS011;5277;48.722;8.736;2022-08-01T05:55:05;3.33;;;2.97;;
10458;SDS011;5277;48.722;8.736;2022-08-01T05:57:43;3.70;;;3.10;;
10458;SDS011;5277;48.722;8.736;2022-08-01T06:00:51;3.63;;;2.72;;
10458;SDS011;5277;48.722;8.736;2022-08-01T06:03:49;3.40;;;2.40;;
10458;SDS011;5277;48.722;8.736;2022-08-01T06:07:02;3.55;;;2.88;;
10458;SDS011;5277;48.722;8.736;2022-08-01T06:09:28;3.42;;;2.38;;
10458;SDS011;5277;48.722;8.736;2022-08-01T06:11:55;2.90;;;2.60;;
10458;SDS011;5277;48.722;8.736;2022-08-01T06:14:21;3.35;;;2.78;;
10458;SDS011;5277;48.722;8.736;2022-08-01T06:16:47;4.38;;;2.78;;
10458;SDS011;5277;48.722;8.736;2022-08-01T06:21:50;3.70;;;2.80;;
10458;SDS011;5277;48.722;8.736;2022-08-01T06:24:20;4.50;;;3.03;;
10458;SDS011;5277;48.722;8.736;2022-08-01T06:26:48;4.72;;;2.95;;
10458;SDS011;5277;48.722;8.736;2022-08-01T06:29:16;4.28;;;3.33;;
10458;SDS011;5277;48.722;8.736;2022-08-01T06:31:53;10.05;;;3.20;;
10458;SDS011;5277;48.722;8.736;2022-08-01T06:34:25;4.05;;;3.00;;
10458;SDS011;5277;48.722;8.736;2022-08-01T06:36:50;5.25;;;3.17;;
10458;SDS011;5277;48.722;8.736;2022-08-01T06:39:16;6.43;;;3.47;;
10458;SDS011;5277;48.722;8.736;2022-08-01T06:41:44;6.88;;;3.22;;
10458;SDS011;5277;48.722;8.736;2022-08-01T06:44:13;6.07;;;3.50;;
10458;SDS011;5277;48.722;8.736;2022-08-01T06:46:42;10.82;;;3.10;;
10458;SDS011;5277;48.722;8.736;2022-08-01T06:49:08;6.55;;;3.00;;
10458;SDS011;5277;48.722;8.736;2022-08-01T06:51:33;3.38;;;2.63;;
10458;SDS011;5277;48.722;8.736;2022-08-01T06:53:59;5.35;;;2.42;;
10458;SDS011;5277;48.722;8.736;2022-08-01T06:56:25;3.28;;;2.40;;
10458;SDS011;5277;48.722;8.736;2022-08-01T06:58:51;3.35;;;2.33;;
10458;SDS011;5277;48.722;8.736;2022-08-01T07:01:17;4.22;;;2.97;;
10458;SDS011;5277;48.722;8.736;2022-08-01T07:03:43;3.35;;;2.60;;
10458;SDS011;5277;48.722;8.736;2022-08-01T07:06:08;2.60;;;2.40;;
10458;SDS011;5277;48.722;8.736;2022-08-01T07:08:34;2.65;;;2.38;;
10458;SDS011;5277;48.722;8.736;2022-08-01T07:11:00;4.35;;;2.15;;
10458;SDS011;5277;48.722;8.736;2022-08-01T07:13:33;2.42;;;1.98;;
10458;SDS011;5277;48.722;8.736;2022-08-01T07:22:00;1.90;;;1.80;;
10458;SDS011;5277;48.722;8.736;2022-08-01T07:25:30;2.05;;;1.77;;
10458;SDS011;5277;48.722;8.736;2022-08-01T07:28:02;2.35;;;2.00;;
10458;SDS011;5277;48.722;8.736;2022-08-01T07:30:41;2.65;;;2.10;;
10458;SDS011;5277;48.722;8.736;2022-08-01T07:33:11;2.92;;;1.67;;
10458;SDS011;5277;48.722;8.736;2022-08-01T07:38:44;3.85;;;1.60;;
10458;SDS011;5277;48.722;8.736;2022-08-01T07:41:14;8.55;;;2.25;;
10458;SDS011;5277;48.722;8.736;2022-08-01T07:43:42;3.28;;;1.70;;
10458;SDS011;5277;48.722;8.736;2022-08-01T07:46:11;1.63;;;1.45;;
10458;SDS011;5277;48.722;8.736;2022-08-01T07:48:52;3.45;;;1.80;;
10458;SDS011;5277;48.722;8.736;2022-08-01T07:51:17;2.25;;;2.05;;
10458;SDS011;5277;48.722;8.736;2022-08-01T07:53:46;4.68;;;1.90;;
10458;SDS011;5277;48.722;8.736;2022-08-01T07:56:20;5.18;;;2.17;;
10458;SDS011;5277;48.722;8.736;2022-08-01T08:02:08;2.70;;;1.80;;
10458;SDS011;5277;48.722;8.736;2022-08-01T08:07:44;2.22;;;2.03;;
10458;SDS011;5277;48.722;8.736;2022-08-01T08:13:20;1.90;;;1.80;;
10458;SDS011;5277;48.722;8.736;2022-08-01T08:15:57;3.97;;;2.40;;
10458;SDS011;5277;48.722;8.736;2022-08-01T08:18:30;4.15;;;2.60;;
10458;SDS011;5277;48.722;8.736;2022-08-01T08:20:56;2.95;;;2.45;;
10458;SDS011;5277;48.722;8.736;2022-08-01T08:23:22;6.88;;;2.38;;
10458;SDS011;5277;48.722;8.736;2022-08-01T08:26:06;7.85;;;2.25;;
10458;SDS011;5277;48.722;8.736;2022-08-01T08:28:33;2.83;;;2.10;;
10458;SDS011;5277;48.722;8.736;2022-08-01T08:30:59;2.28;;;2.08;;
10458;SDS011;5277;48.722;8.736;2022-08-01T08:33:24;2.17;;;1.85;;
10458;SDS011;5277;48.722;8.736;2022-08-01T08:35:50;4.65;;;2.20;;
10458;SDS011;5277;48.722;8.736;2022-08-01T08:38:16;2.33;;;2.13;;
10458;SDS011;5277;48.722;8.736;2022-08-01T08:40:42;2.50;;;2.15;;
10458;SDS011;5277;48.722;8.736;2022-08-01T08:43:07;4.28;;;2.53;;
10458;SDS011;5277;48.722;8.736;2022-08-01T08:45:34;2.60;;;2.10;;
10458;SDS011;5277;48.722;8.736;2022-08-01T08:47:59;2.50;;;2.30;;
10458;SDS011;5277;48.722;8.736;2022-08-01T08:50:25;2.47;;;2.20;;
10458;SDS011;5277;48.722;8.736;2022-08-01T08:52:55;3.13;;;2.30;;
10458;SDS011;5277;48.722;8.736;2022-08-01T08:58:17;3.05;;;2.20;;
10458;SDS011;5277;48.722;8.736;2022-08-01T09:01:33;2.13;;;1.92;;
10458;SDS011;5277;48.722;8.736;2022-08-01T09:04:04;2.47;;;2.28;;
10458;SDS011;5277;48.722;8.736;2022-08-01T09:06:30;2.25;;;2.00;;
10458;SDS011;5277;48.722;8.736;2022-08-01T09:08:57;12.20;;;2.80;;
10458;SDS011;5277;48.722;8.736;2022-08-01T09:11:26;2.95;;;2.22;;
10458;SDS011;5277;48.722;8.736;2022-08-01T09:14:18;2.20;;;2.00;;
10458;SDS011;5277;48.722;8.736;2022-08-01T09:17:12;2.17;;;1.98;;
10458;SDS011;5277;48.722;8.736;2022-08-01T09:22:53;2.40;;;2.15;;
10458;SDS011;5277;48.722;8.736;2022-08-01T09:28:26;2.45;;;1.92;;
10458;SDS011;5277;48.722;8.736;2022-08-01T09:31:02;2.35;;;2.15;;
10458;SDS011;5277;48.722;8.736;2022-08-01T09:36:21;2.20;;;1.92;;
10458;SDS011;5277;48.722;8.736;2022-08-01T09:38:49;2.42;;;2.03;;
10458;SDS011;5277;48.722;8.736;2022-08-01T09:41:16;2.78;;;1.98;;
10458;SDS011;5277;48.722;8.736;2022-08-01T09:47:01;2.17;;;1.98;;
10458;SDS011;5277;48.722;8.736;2022-08-01T09:49:31;2.42;;;2.20;;
10458;SDS011;5277;48.722;8.736;2022-08-01T09:51:59;4.65;;;2.10;;
10458;SDS011;5277;48.722;8.736;2022-08-01T09:54:36;2.65;;;1.90;;
10458;SDS011;5277;48.722;8.736;2022-08-01T09:57:20;2.85;;;2.00;;
10458;SDS011;5277;48.722;8.736;2022-08-01T09:59:56;1.95;;;1.83;;
10458;SDS011;5277;48.722;8.736;2022-08-01T10:02:32;3.75;;;1.90;;
10458;SDS011;5277;48.722;8.736;2022-08-01T10:04:58;2.55;;;2.20;;
10458;SDS011;5277;48.722;8.736;2022-08-01T10:07:25;3.47;;;2.00;;
10458;SDS011;5277;48.722;8.736;2022-08-01T10:09:53;2.60;;;2.17;;
10458;SDS011;5277;48.722;8.736;2022-08-01T10:12:20;2.33;;;2.10;;
10458;SDS011;5277;48.722;8.736;2022-08-01T10:14:49;6.35;;;2.42;;
10458;SDS011;5277;48.722;8.736;2022-08-01T10:17:18;2.03;;;1.90;;
10458;SDS011;5277;48.722;8.736;2022-08-01T10:19:45;3.72;;;2.20;;
10458;SDS011;5277;48.722;8.736;2022-08-01T10:22:18;2.35;;;2.15;;
10458;SDS011;5277;48.722;8.736;2022-08-01T10:24:47;3.67;;;2.13;;
10458;SDS011;5277;48.722;8.736;2022-08-01T10:29:58;3.20;;;2.30;;
10458;SDS011;5277;48.722;8.736;2022-08-01T10:32:46;10.73;;;3.00;;
10458;SDS011;5277;48.722;8.736;2022-08-01T10:35:26;4.18;;;2.00;;
10458;SDS011;5277;48.722;8.736;2022-08-01T10:37:53;4.65;;;2.30;;
10458;SDS011;5277;48.722;8.736;2022-08-01T10:40:22;3.90;;;1.98;;
10458;SDS011;5277;48.722;8.736;2022-08-01T10:42:48;9.15;;;2.03;;
10458;SDS011;5277;48.722;8.736;2022-08-01T10:45:34;2.65;;;1.80;;
10458;SDS011;5277;48.722;8.736;2022-08-01T10:51:14;2.67;;;2.13;;
10458;SDS011;5277;48.722;8.736;2022-08-01T10:53:51;6.72;;;2.42;;
10458;SDS011;5277;48.722;8.736;2022-08-01T10:56:24;2.10;;;1.95;;
10458;SDS011;5277;48.722;8.736;2022-08-01T10:59:09;14.27;;;2.45;;
10458;SDS011;5277;48.722;8.736;2022-08-01T11:01:42;5.43;;;2.17;;
10458;SDS011;5277;48.722;8.736;2022-08-01T11:04:50;5.07;;;2.10;;
10458;SDS011;5277;48.722;8.736;2022-08-01T11:07:42;2.20;;;2.00;;
10458;SDS011;5277;48.722;8.736;2022-08-01T11:10:14;2.35;;;1.90;;
10458;SDS011;5277;48.722;8.736;2022-08-01T11:12:45;3.28;;;1.98;;
10458;SDS011;5277;48.722;8.736;2022-08-01T11:17:39;4.13;;;2.13;;
10458;SDS011;5277;48.722;8.736;2022-08-01T11:33:11;2.20;;;1.85;;
10458;SDS011;5277;48.722;8.736;2022-08-01T11:38:36;1.83;;;1.73;;
10458;SDS011;5277;48.722;8.736;2022-08-01T11:52:08;3.42;;;2.35;;
10458;SDS011;5277;48.722;8.736;2022-08-01T11:54:53;3.50;;;2.25;;
10458;SDS011;5277;48.722;8.736;2022-08-01T11:57:40;2.38;;;2.10;;
10458;SDS011;5277;48.722;8.736;2022-08-01T12:00:10;3.75;;;2.30;;
10458;SDS011;5277;48.722;8.736;2022-08-01T12:02:39;2.20;;;2.00;;
10458;SDS011;5277;48.722;8.736;2022-08-01T12:05:09;2.20;;;2.00;;
10458;SDS011;5277;48.722;8.736;2022-08-01T12:07:39;2.00;;;1.80;;
10458;SDS011;5277;48.722;8.736;2022-08-01T12:10:13;2.78;;;2.20;;
10458;SDS011;5277;48.722;8.736;2022-08-01T12:12:47;2.25;;;2.10;;
10458;SDS011;5277;48.722;8.736;2022-08-01T12:15:19;2.33;;;2.13;;
10458;SDS011;5277;48.722;8.736;2022-08-01T12:17:48;5.75;;;2.33;;
10458;SDS011;5277;48.722;8.736;2022-08-01T12:20:18;2.20;;;2.00;;
10458;SDS011;5277;48.722;8.736;2022-08-01T12:22:46;2.13;;;1.90;;
10458;SDS011;5277;48.722;8.736;2022-08-01T12:25:12;2.13;;;2.00;;
10458;SDS011;5277;48.722;8.736;2022-08-01T12:27:40;2.65;;;2.25;;
10458;SDS011;5277;48.722;8.736;2022-08-01T12:30:11;3.80;;;2.20;;
10458;SDS011;5277;48.722;8.736;2022-08-01T12:32:48;2.30;;;2.10;;
10458;SDS011;5277;48.722;8.736;2022-08-01T12:35:15;2.20;;;2.00;;
10458;SDS011;5277;48.722;8.736;2022-08-01T12:41:02;2.30;;;2.10;;
10458;SDS011;5277;48.722;8.736;2022-08-01T12:43:35;2.38;;;2.17;;
10458;SDS011;5277;48.722;8.736;2022-08-01T12:46:07;3.83;;;2.50;;
10458;SDS011;5277;48.722;8.736;2022-08-01T12:51:20;2.53;;;1.90;;
10458;SDS011;5277;48.722;8.736;2022-08-01T12:53:46;2.60;;;2.40;;
10458;SDS011;5277;48.722;8.736;2022-08-01T12:56:15;2.28;;;2.08;;
10458;SDS011;5277;48.722;8.736;2022-08-01T12:58:49;2.55;;;2.10;;
10458;SDS011;5277;48.722;8.736;2022-08-01T13:01:27;2.63;;;2.10;;
10458;SDS011;5277;48.722;8.736;2022-08-01T13:03:57;4.03;;;1.98;;
10458;SDS011;5277;48.722;8.736;2022-08-01T13:06:29;2.35;;;2.15;;
10458;SDS011;5277;48.722;8.736;2022-08-01T13:08:55;2.30;;;2.10;;
10458;SDS011;5277;48.722;8.736;2022-08-01T13:11:30;2.40;;;1.98;;
10458;SDS011;5277;48.722;8.736;2022-08-01T13:13:56;2.42;;;2.10;;
10458;SDS011;5277;48.722;8.736;2022-08-01T13:16:27;4.95;;;2.25;;
10458;SDS011;5277;48.722;8.736;2022-08-01T13:18:55;3.00;;;2.05;;
10458;SDS011;5277;48.722;8.736;2022-08-01T13:24:01;6.90;;;2.65;;
10458;SDS011;5277;48.722;8.736;2022-08-01T13:26:46;4.43;;;2.33;;
10458;SDS011;5277;48.722;8.736;2022-08-01T13:29:18;5.40;;;2.10;;
10458;SDS011;5277;48.722;8.736;2022-08-01T13:31:56;4.90;;;2.28;;
10458;SDS011;5277;48.722;8.736;2022-08-01T13:37:40;3.20;;;2.50;;
10458;SDS011;5277;48.722;8.736;2022-08-01T13:40:08;2.30;;;2.10;;
10458;SDS011;5277;48.722;8.736;2022-08-01T13:42:35;3.50;;;1.98;;
10458;SDS011;5277;48.722;8.736;2022-08-01T13:45:02;4.50;;;2.17;;
10458;SDS011;5277;48.722;8.736;2022-08-01T13:47:32;1.92;;;1.80;;
10458;SDS011;5277;48.722;8.736;2022-08-01T13:50:00;3.10;;;2.25;;
10458;SDS011;5277;48.722;8.736;2022-08-01T13:52:27;2.95;;;2.20;;
10458;SDS011;5277;48.722;8.736;2022-08-01T13:54:53;2.35;;;2.15;;
10458;SDS011;5277;48.722;8.736;2022-08-01T13:57:25;4.90;;;2.47;;
10458;SDS011;5277;48.722;8.736;2022-08-01T14:00:17;4.45;;;2.15;;
10458;SDS011;5277;48.722;8.736;2022-08-01T14:02:51;3.10;;;1.95;;
10458;SDS011;5277;48.722;8.736;2022-08-01T14:05:31;2.58;;;2.20;;
10458;SDS011;5277;48.722;8.736;2022-08-01T14:08:00;2.15;;;1.95;;
10458;SDS011;5277;48.722;8.736;2022-08-01T14:11:17;2.80;;;2.00;;
10458;SDS011;5277;48.722;8.736;2022-08-01T14:14:04;2.58;;;2.22;;
10458;SDS011;5277;48.722;8.736;2022-08-01T14:16:30;5.50;;;2.00;;
10458;SDS011;5277;48.722;8.736;2022-08-01T14:18:56;2.33;;;1.90;;
10458;SDS011;5277;48.722;8.736;2022-08-01T14:21:26;2.60;;;2.15;;
10458;SDS011;5277;48.722;8.736;2022-08-01T14:23:51;2.33;;;1.80;;
10458;SDS011;5277;48.722;8.736;2022-08-01T14:26:17;3.55;;;1.98;;
10458;SDS011;5277;48.722;8.736;2022-08-01T14:28:43;2.53;;;1.88;;
10458;SDS011;5277;48.722;8.736;2022-08-01T14:31:08;2.38;;;1.85;;
10458;SDS011;5277;48.722;8.736;2022-08-01T14:33:34;2.25;;;2.05;;
10458;SDS011;5277;48.722;8.736;2022-08-01T14:36:02;2.25;;;1.92;;
10458;SDS011;5277;48.722;8.736;2022-08-01T14:38:28;3.25;;;1.90;;
10458;SDS011;5277;48.722;8.736;2022-08-01T14:40:54;3.10;;;1.80;;
10458;SDS011;5277;48.722;8.736;2022-08-01T14:43:25;3.97;;;2.58;;
10458;SDS011;5277;48.722;8.736;2022-08-01T14:45:56;2.03;;;1.70;;
10458;SDS011;5277;48.722;8.736;2022-08-01T14:48:22;2.88;;;2.03;;
10458;SDS011;5277;48.722;8.736;2022-08-01T14:50:55;2.88;;;2.28;;
10458;SDS011;5277;48.722;8.736;2022-08-01T14:53:22;4.38;;;1.90;;
10458;SDS011;5277;48.722;8.736;2022-08-01T14:55:54;1.88;;;1.77;;
10458;SDS011;5277;48.722;8.736;2022-08-01T14:58:30;2.80;;;1.90;;
10458;SDS011;5277;48.722;8.736;2022-08-01T15:00:56;3.45;;;2.05;;
10458;SDS011;5277;48.722;8.736;2022-08-01T15:03:22;3.97;;;1.88;;
10458;SDS011;5277;48.722;8.736;2022-08-01T15:05:48;2.60;;;1.85;;
10458;SDS011;5277;48.722;8.736;2022-08-01T15:08:13;5.47;;;1.80;;
10458;SDS011;5277;48.722;8.736;2022-08-01T15:10:39;2.08;;;1.70;;
10458;SDS011;5277;48.722;8.736;2022-08-01T15:13:05;1.95;;;1.65;;
10458;SDS011;5277;48.722;8.736;2022-08-01T15:15:31;3.53;;;1.92;;
10458;SDS011;5277;48.722;8.736;2022-08-01T15:17:57;3.28;;;1.95;;
10458;SDS011;5277;48.722;8.736;2022-08-01T15:20:22;3.03;;;1.65;;
10458;SDS011;5277;48.722;8.736;2022-08-01T15:22:50;2.30;;;1.70;;
10458;SDS011;5277;48.722;8.736;2022-08-01T15:25:15;3.42;;;2.00;;
10458;SDS011;5277;48.722;8.736;2022-08-01T15:27:41;3.75;;;1.80;;
10458;SDS011;5277;48.722;8.736;2022-08-01T15:30:07;2.40;;;1.70;;
10458;SDS011;5277;48.722;8.736;2022-08-01T15:32:33;2.00;;;1.80;;
10458;SDS011;5277;48.722;8.736;2022-08-01T15:34:59;1.70;;;1.45;;
10458;SDS011;5277;48.722;8.736;2022-08-01T15:37:25;2.20;;;1.80;;
10458;SDS011;5277;48.722;8.736;2022-08-01T15:39:51;2.05;;;1.70;;
10458;SDS011;5277;48.722;8.736;2022-08-01T15:42:22;1.80;;;1.70;;
10458;SDS011;5277;48.722;8.736;2022-08-01T15:44:48;1.65;;;1.40;;
10458;SDS011;5277;48.722;8.736;2022-08-01T15:47:14;6.07;;;1.65;;
10458;SDS011;5277;48.722;8.736;2022-08-01T15:49:40;2.17;;;1.85;;
10458;SDS011;5277;48.722;8.736;2022-08-01T15:52:08;1.80;;;1.35;;
10458;SDS011;5277;48.722;8.736;2022-08-01T15:54:34;3.35;;;1.83;;
10458;SDS011;5277;48.722;8.736;2022-08-01T15:57:00;3.17;;;1.42;;
10458;SDS011;5277;48.722;8.736;2022-08-01T15:59:27;2.25;;;1.67;;
10458;SDS011;5277;48.722;8.736;2022-08-01T16:01:53;1.85;;;1.30;;
10458;SDS011;5277;48.722;8.736;2022-08-01T16:04:19;1.77;;;1.30;;
10458;SDS011;5277;48.722;8.736;2022-08-01T16:06:45;3.20;;;1.38;;
10458;SDS011;5277;48.722;8.736;2022-08-01T16:09:11;2.63;;;1.50;;
10458;SDS011;5277;48.722;8.736;2022-08-01T16:11:37;2.03;;;1.23;;
10458;SDS011;5277;48.722;8.736;2022-08-01T16:14:03;2.35;;;1.30;;
10458;SDS011;5277;48.722;8.736;2022-08-01T16:16:29;1.40;;;1.20;;
10458;SDS011;5277;48.722;8.736;2022-08-01T16:18:55;1.35;;;1.23;;
10458;SDS011;5277;48.722;8.736;2022-08-01T16:21:20;1.92;;;1.38;;
10458;SDS011;5277;48.722;8.736;2022-08-01T16:23:49;3.83;;;1.40;;
10458;SDS011;5277;48.722;8.736;2022-08-01T16:26:15;3.40;;;1.23;;
10458;SDS011;5277;48.722;8.736;2022-08-01T16:28:43;2.25;;;1.50;;
10458;SDS011;5277;48.722;8.736;2022-08-01T16:31:12;1.83;;;1.50;;
10458;SDS011;5277;48.722;8.736;2022-08-01T16:33:39;3.70;;;1.60;;
10458;SDS011;5277;48.722;8.736;2022-08-01T16:36:04;2.83;;;1.50;;
10458;SDS011;5277;48.722;8.736;2022-08-01T16:38:30;1.33;;;1.10;;
10458;SDS011;5277;48.722;8.736;2022-08-01T16:40:56;1.48;;;1.38;;
10458;SDS011;5277;48.722;8.736;2022-08-01T16:43:22;2.78;;;1.30;;
10458;SDS011;5277;48.722;8.736;2022-08-01T16:45:48;1.98;;;1.50;;
10458;SDS011;5277;48.722;8.736;2022-08-01T16:48:14;1.38;;;1.27;;